Terminal Aerodrome Forecast
Issued by NWS Topeka, KS

Home | Current Version | Previous Version | Text Only | Print | Product List | Glossary On
Versions: 1 2 3 4 5 6 7 8 9 10 11 12 13 14 15 16 17
000
FTUS43 KTOP 291735
TAFTOP
TAF
KTOP 291735Z 2918/3018 16004KT P6SM SCT100
     FM291900 13006KT P6SM VCTS SCT045CB
     FM300000 09003KT P6SM SCT100
     FM300800 10004KT P6SM VCTS SCT040CB BKN080=

USA.gov is the U.S. government's official web portal to all federal, state and local government web resources and services.